sensor_id;sensor_type;location;lat;lon;timestamp;temperature;humidity
21039;DHT22;10678;51.002;4.786;2023-02-02T00:00:52;9.20;99.90
21039;DHT22;10678;51.002;4.786;2023-02-02T00:03:18;9.20;99.90
21039;DHT22;10678;51.002;4.786;2023-02-02T00:05:48;9.30;99.90
21039;DHT22;10678;51.002;4.786;2023-02-02T00:08:15;9.40;99.90
21039;DHT22;10678;51.002;4.786;2023-02-02T00:10:41;9.40;99.90
21039;DHT22;10678;51.002;4.786;2023-02-02T00:13:07;9.40;99.90
21039;DHT22;10678;51.002;4.786;2023-02-02T00:15:33;9.40;99.90
21039;DHT22;10678;51.002;4.786;2023-02-02T00:17:58;9.30;99.90
21039;DHT22;10678;51.002;4.786;2023-02-02T00:20:24;9.40;99.90
21039;DHT22;10678;51.002;4.786;2023-02-02T00:22:49;9.40;99.90
21039;DHT22;10678;51.002;4.786;2023-02-02T00:25:15;9.40;99.90
21039;DHT22;10678;51.002;4.786;2023-02-02T00:27:41;9.40;99.90
21039;DHT22;10678;51.002;4.786;2023-02-02T00:30:07;9.40;99.90
21039;DHT22;10678;51.002;4.786;2023-02-02T00:32:32;9.40;99.90
21039;DHT22;10678;51.002;4.786;2023-02-02T00:34:58;9.40;99.90
21039;DHT22;10678;51.002;4.786;2023-02-02T00:37:24;9.50;99.90
21039;DHT22;10678;51.002;4.786;2023-02-02T00:39:49;9.40;99.90
21039;DHT22;10678;51.002;4.786;2023-02-02T00:42:16;9.40;99.90
21039;DHT22;10678;51.002;4.786;2023-02-02T00:44:42;9.50;99.90
21039;DHT22;10678;51.002;4.786;2023-02-02T00:47:26;9.40;99.90
21039;DHT22;10678;51.002;4.786;2023-02-02T00:49:51;9.30;99.90
21039;DHT22;10678;51.002;4.786;2023-02-02T00:52:17;9.40;99.90
21039;DHT22;10678;51.002;4.786;2023-02-02T00:54:42;9.40;99.90
21039;DHT22;10678;51.002;4.786;2023-02-02T00:57:12;9.40;99.90
21039;DHT22;10678;51.002;4.786;2023-02-02T00:59:38;9.50;99.90
21039;DHT22;10678;51.002;4.786;2023-02-02T01:02:03;9.50;99.90
21039;DHT22;10678;51.002;4.786;2023-02-02T01:04:29;9.50;99.90
21039;DHT22;10678;51.002;4.786;2023-02-02T01:06:54;9.30;99.90
21039;DHT22;10678;51.002;4.786;2023-02-02T01:09:20;9.40;99.90
21039;DHT22;10678;51.002;4.786;2023-02-02T01:11:46;9.50;99.90
21039;DHT22;10678;51.002;4.786;2023-02-02T01:14:11;9.60;99.90
21039;DHT22;10678;51.002;4.786;2023-02-02T01:16:37;9.60;99.90
21039;DHT22;10678;51.002;4.786;2023-02-02T01:19:03;9.50;99.90
21039;DHT22;10678;51.002;4.786;2023-02-02T01:21:28;9.40;99.90
21039;DHT22;10678;51.002;4.786;2023-02-02T01:23:54;9.30;99.90
21039;DHT22;10678;51.002;4.786;2023-02-02T01:26:19;9.30;99.90
21039;DHT22;10678;51.002;4.786;2023-02-02T01:28:45;9.40;99.90
21039;DHT22;10678;51.002;4.786;2023-02-02T01:31:14;9.30;99.90
21039;DHT22;10678;51.002;4.786;2023-02-02T01:33:40;9.40;99.90
21039;DHT22;10678;51.002;4.786;2023-02-02T01:36:10;9.30;99.90
21039;DHT22;10678;51.002;4.786;2023-02-02T01:38:36;9.30;99.90
21039;DHT22;10678;51.002;4.786;2023-02-02T01:41:02;9.30;99.90
21039;DHT22;10678;51.002;4.786;2023-02-02T01:46:14;9.30;99.90
21039;DHT22;10678;51.002;4.786;2023-02-02T01:48:43;9.30;99.90
21039;DHT22;10678;51.002;4.786;2023-02-02T01:51:14;9.30;99.90
21039;DHT22;10678;51.002;4.786;2023-02-02T01:53:43;9.30;99.90
21039;DHT22;10678;51.002;4.786;2023-02-02T01:56:11;9.30;99.90
21039;DHT22;10678;51.002;4.786;2023-02-02T01:58:40;9.30;99.90
21039;DHT22;10678;51.002;4.786;2023-02-02T02:01:07;9.20;99.90
21039;DHT22;10678;51.002;4.786;2023-02-02T02:03:34;9.40;99.90
21039;DHT22;10678;51.002;4.786;2023-02-02T02:06:12;9.30;99.90
21039;DHT22;10678;51.002;4.786;2023-02-02T02:08:52;9.30;99.90
21039;DHT22;10678;51.002;4.786;2023-02-02T02:11:19;9.20;99.90
21039;DHT22;10678;51.002;4.786;2023-02-02T02:13:45;9.30;99.90
21039;DHT22;10678;51.002;4.786;2023-02-02T02:23:17;9.30;99.90
21039;DHT22;10678;51.002;4.786;2023-02-02T02:26:31;9.30;99.90
21039;DHT22;10678;51.002;4.786;2023-02-02T02:32:06;9.20;99.90
21039;DHT22;10678;51.002;4.786;2023-02-02T02:34:55;9.20;99.90
21039;DHT22;10678;51.002;4.786;2023-02-02T02:42:46;9.40;99.90
21039;DHT22;10678;51.002;4.786;2023-02-02T02:45:13;9.30;99.90
21039;DHT22;10678;51.002;4.786;2023-02-02T02:47:40;9.20;99.90
21039;DHT22;10678;51.002;4.786;2023-02-02T02:50:07;9.20;99.90
21039;DHT22;10678;51.002;4.786;2023-02-02T02:52:34;9.20;99.90
21039;DHT22;10678;51.002;4.786;2023-02-02T02:55:01;9.20;99.90
21039;DHT22;10678;51.002;4.786;2023-02-02T02:57:40;9.20;99.90
21039;DHT22;10678;51.002;4.786;2023-02-02T03:06:14;9.20;99.90
21039;DHT22;10678;51.002;4.786;2023-02-02T03:08:46;9.30;99.90
21039;DHT22;10678;51.002;4.786;2023-02-02T03:11:14;9.30;99.90
21039;DHT22;10678;51.002;4.786;2023-02-02T03:13:40;9.20;99.90
21039;DHT22;10678;51.002;4.786;2023-02-02T03:16:08;9.20;99.90
21039;DHT22;10678;51.002;4.786;2023-02-02T03:18:33;9.20;99.90
21039;DHT22;10678;51.002;4.786;2023-02-02T03:20:59;9.30;99.90
21039;DHT22;10678;51.002;4.786;2023-02-02T03:23:25;9.20;99.90
21039;DHT22;10678;51.002;4.786;2023-02-02T03:25:52;9.20;99.90
21039;DHT22;10678;51.002;4.786;2023-02-02T03:28:18;9.20;99.90
21039;DHT22;10678;51.002;4.786;2023-02-02T03:30:45;9.20;99.90
21039;DHT22;10678;51.002;4.786;2023-02-02T03:33:12;9.20;99.90
21039;DHT22;10678;51.002;4.786;2023-02-02T03:35:38;9.30;99.90
21039;DHT22;10678;51.002;4.786;2023-02-02T03:38:04;9.20;99.90
21039;DHT22;10678;51.002;4.786;2023-02-02T03:40:29;9.30;99.90
21039;DHT22;10678;51.002;4.786;2023-02-02T03:42:55;9.40;99.90
21039;DHT22;10678;51.002;4.786;2023-02-02T03:45:21;9.30;99.90
21039;DHT22;10678;51.002;4.786;2023-02-02T03:47:47;9.30;99.90
21039;DHT22;10678;51.002;4.786;2023-02-02T03:50:13;9.20;99.90
21039;DHT22;10678;51.002;4.786;2023-02-02T03:52:38;9.20;99.90
21039;DHT22;10678;51.002;4.786;2023-02-02T03:55:05;9.20;99.90
21039;DHT22;10678;51.002;4.786;2023-02-02T03:57:31;9.30;99.90
21039;DHT22;10678;51.002;4.786;2023-02-02T03:59:56;9.30;99.90
21039;DHT22;10678;51.002;4.786;2023-02-02T04:02:22;9.30;99.90
21039;DHT22;10678;51.002;4.786;2023-02-02T04:04:47;9.30;99.90
21039;DHT22;10678;51.002;4.786;2023-02-02T04:07:13;9.30;99.90
21039;DHT22;10678;51.002;4.786;2023-02-02T04:09:39;9.20;99.90
21039;DHT22;10678;51.002;4.786;2023-02-02T04:12:04;9.20;99.90
21039;DHT22;10678;51.002;4.786;2023-02-02T04:14:30;9.20;99.90
21039;DHT22;10678;51.002;4.786;2023-02-02T04:16:56;9.30;99.90
21039;DHT22;10678;51.002;4.786;2023-02-02T04:19:21;9.20;99.90
21039;DHT22;10678;51.002;4.786;2023-02-02T04:21:47;9.20;99.90
21039;DHT22;10678;51.002;4.786;2023-02-02T04:24:13;9.20;99.90
21039;DHT22;10678;51.002;4.786;2023-02-02T04:26:39;9.20;99.90
21039;DHT22;10678;51.002;4.786;2023-02-02T04:29:06;9.20;99.90
21039;DHT22;10678;51.002;4.786;2023-02-02T04:31:31;9.20;99.90
21039;DHT22;10678;51.002;4.786;2023-02-02T04:33:57;9.20;99.90
21039;DHT22;10678;51.002;4.786;2023-02-02T04:36:23;9.20;99.90
21039;DHT22;10678;51.002;4.786;2023-02-02T04:38:50;9.20;99.90
21039;DHT22;10678;51.002;4.786;2023-02-02T04:41:16;9.20;99.90
21039;DHT22;10678;51.002;4.786;2023-02-02T04:43:45;9.30;99.90
21039;DHT22;10678;51.002;4.786;2023-02-02T04:46:11;9.30;99.90
21039;DHT22;10678;51.002;4.786;2023-02-02T04:48:37;9.40;99.90
21039;DHT22;10678;51.002;4.786;2023-02-02T04:51:06;9.30;99.90
21039;DHT22;10678;51.002;4.786;2023-02-02T04:53:32;9.20;99.90
21039;DHT22;10678;51.002;4.786;2023-02-02T04:56:08;9.20;99.90
21039;DHT22;10678;51.002;4.786;2023-02-02T04:58:34;9.10;99.90
21039;DHT22;10678;51.002;4.786;2023-02-02T05:00:59;9.10;99.90
21039;DHT22;10678;51.002;4.786;2023-02-02T05:03:25;9.10;99.90
21039;DHT22;10678;51.002;4.786;2023-02-02T05:05:50;9.20;99.90
21039;DHT22;10678;51.002;4.786;2023-02-02T05:08:16;9.20;99.90
21039;DHT22;10678;51.002;4.786;2023-02-02T05:10:42;9.30;99.90
21039;DHT22;10678;51.002;4.786;2023-02-02T05:13:08;9.30;99.90
21039;DHT22;10678;51.002;4.786;2023-02-02T05:15:34;9.20;99.90
21039;DHT22;10678;51.002;4.786;2023-02-02T05:17:59;9.20;99.90
21039;DHT22;10678;51.002;4.786;2023-02-02T05:20:25;9.10;99.90
21039;DHT22;10678;51.002;4.786;2023-02-02T05:22:51;9.10;99.90
21039;DHT22;10678;51.002;4.786;2023-02-02T05:25:16;9.10;99.90
21039;DHT22;10678;51.002;4.786;2023-02-02T05:27:43;9.00;99.90
21039;DHT22;10678;51.002;4.786;2023-02-02T05:30:11;9.10;99.90
21039;DHT22;10678;51.002;4.786;2023-02-02T05:32:37;9.10;99.90
21039;DHT22;10678;51.002;4.786;2023-02-02T05:35:03;9.20;99.90
21039;DHT22;10678;51.002;4.786;2023-02-02T05:37:28;9.20;99.90
21039;DHT22;10678;51.002;4.786;2023-02-02T05:39:54;9.20;99.90
21039;DHT22;10678;51.002;4.786;2023-02-02T05:42:19;9.30;99.90
21039;DHT22;10678;51.002;4.786;2023-02-02T05:44:45;9.30;99.90
21039;DHT22;10678;51.002;4.786;2023-02-02T05:47:11;9.30;99.90
21039;DHT22;10678;51.002;4.786;2023-02-02T05:49:36;9.30;99.90
21039;DHT22;10678;51.002;4.786;2023-02-02T05:52:02;9.20;99.90
21039;DHT22;10678;51.002;4.786;2023-02-02T05:54:28;9.20;99.90
21039;DHT22;10678;51.002;4.786;2023-02-02T05:56:53;9.20;99.90
21039;DHT22;10678;51.002;4.786;2023-02-02T05:59:20;9.20;99.90
21039;DHT22;10678;51.002;4.786;2023-02-02T06:01:46;9.20;99.90
21039;DHT22;10678;51.002;4.786;2023-02-02T06:04:12;9.00;99.90
21039;DHT22;10678;51.002;4.786;2023-02-02T06:06:38;9.20;99.90
21039;DHT22;10678;51.002;4.786;2023-02-02T06:09:05;9.20;99.90
21039;DHT22;10678;51.002;4.786;2023-02-02T06:11:32;9.20;99.90
21039;DHT22;10678;51.002;4.786;2023-02-02T06:13:57;9.30;99.90
21039;DHT22;10678;51.002;4.786;2023-02-02T06:16:23;9.20;99.90
21039;DHT22;10678;51.002;4.786;2023-02-02T06:18:49;9.20;99.90
21039;DHT22;10678;51.002;4.786;2023-02-02T06:21:15;9.40;99.90
21039;DHT22;10678;51.002;4.786;2023-02-02T06:23:41;9.20;99.90
21039;DHT22;10678;51.002;4.786;2023-02-02T06:26:13;9.30;99.90
21039;DHT22;10678;51.002;4.786;2023-02-02T06:28:40;9.40;99.90
21039;DHT22;10678;51.002;4.786;2023-02-02T06:31:08;9.40;99.90
21039;DHT22;10678;51.002;4.786;2023-02-02T06:33:34;9.50;99.90
21039;DHT22;10678;51.002;4.786;2023-02-02T06:36:00;9.30;99.90
21039;DHT22;10678;51.002;4.786;2023-02-02T06:38:27;9.20;99.90
21039;DHT22;10678;51.002;4.786;2023-02-02T06:40:52;9.20;99.90
21039;DHT22;10678;51.002;4.786;2023-02-02T06:43:18;9.20;99.90
21039;DHT22;10678;51.002;4.786;2023-02-02T06:45:44;9.20;99.90
21039;DHT22;10678;51.002;4.786;2023-02-02T06:48:11;9.20;99.90
21039;DHT22;10678;51.002;4.786;2023-02-02T06:50:37;9.20;99.90
21039;DHT22;10678;51.002;4.786;2023-02-02T06:53:03;9.30;99.90
21039;DHT22;10678;51.002;4.786;2023-02-02T06:55:29;9.30;99.90
21039;DHT22;10678;51.002;4.786;2023-02-02T06:57:58;9.30;99.90
21039;DHT22;10678;51.002;4.786;2023-02-02T07:00:25;9.30;99.90
21039;DHT22;10678;51.002;4.786;2023-02-02T07:02:51;9.20;99.90
21039;DHT22;10678;51.002;4.786;2023-02-02T07:05:17;9.20;99.90
21039;DHT22;10678;51.002;4.786;2023-02-02T07:07:49;9.20;99.90
21039;DHT22;10678;51.002;4.786;2023-02-02T07:10:15;9.20;99.90
21039;DHT22;10678;51.002;4.786;2023-02-02T07:12:41;9.10;99.90
21039;DHT22;10678;51.002;4.786;2023-02-02T07:15:07;9.10;99.90
21039;DHT22;10678;51.002;4.786;2023-02-02T07:17:32;9.10;99.90
21039;DHT22;10678;51.002;4.786;2023-02-02T07:19:58;9.10;99.90
21039;DHT22;10678;51.002;4.786;2023-02-02T07:22:23;9.10;99.90
21039;DHT22;10678;51.002;4.786;2023-02-02T07:24:49;9.20;99.90
21039;DHT22;10678;51.002;4.786;2023-02-02T07:27:14;9.10;99.90
21039;DHT22;10678;51.002;4.786;2023-02-02T07:29:40;9.20;99.90
21039;DHT22;10678;51.002;4.786;2023-02-02T07:32:06;9.30;99.90
21039;DHT22;10678;51.002;4.786;2023-02-02T07:34:31;9.20;99.90
21039;DHT22;10678;51.002;4.786;2023-02-02T07:36:57;9.20;99.90
21039;DHT22;10678;51.002;4.786;2023-02-02T07:39:22;9.30;99.90
21039;DHT22;10678;51.002;4.786;2023-02-02T07:41:48;9.20;99.90
21039;DHT22;10678;51.002;4.786;2023-02-02T07:44:15;9.40;99.90
21039;DHT22;10678;51.002;4.786;2023-02-02T07:46:46;9.50;99.90
21039;DHT22;10678;51.002;4.786;2023-02-02T07:49:13;9.40;99.90
21039;DHT22;10678;51.002;4.786;2023-02-02T07:51:39;9.40;99.90
21039;DHT22;10678;51.002;4.786;2023-02-02T07:54:05;9.20;99.90
21039;DHT22;10678;51.002;4.786;2023-02-02T07:56:30;9.30;99.90
21039;DHT22;10678;51.002;4.786;2023-02-02T07:58:56;9.40;99.90
21039;DHT22;10678;51.002;4.786;2023-02-02T08:01:23;9.30;99.90
21039;DHT22;10678;51.002;4.786;2023-02-02T08:03:50;9.30;99.90
21039;DHT22;10678;51.002;4.786;2023-02-02T08:06:22;9.50;99.90
21039;DHT22;10678;51.002;4.786;2023-02-02T08:08:48;9.50;99.90
21039;DHT22;10678;51.002;4.786;2023-02-02T08:11:16;9.40;99.90
21039;DHT22;10678;51.002;4.786;2023-02-02T08:13:43;9.40;99.90
21039;DHT22;10678;51.002;4.786;2023-02-02T08:16:09;9.40;99.90
21039;DHT22;10678;51.002;4.786;2023-02-02T08:18:35;9.40;99.90
21039;DHT22;10678;51.002;4.786;2023-02-02T08:21:02;9.50;99.90
21039;DHT22;10678;51.002;4.786;2023-02-02T08:23:28;9.50;99.90
21039;DHT22;10678;51.002;4.786;2023-02-02T08:26:05;9.50;99.90
21039;DHT22;10678;51.002;4.786;2023-02-02T08:28:30;9.70;99.90
21039;DHT22;10678;51.002;4.786;2023-02-02T08:30:56;9.80;99.90
21039;DHT22;10678;51.002;4.786;2023-02-02T08:33:21;9.80;99.90
21039;DHT22;10678;51.002;4.786;2023-02-02T08:35:47;9.70;99.90
21039;DHT22;10678;51.002;4.786;2023-02-02T08:38:13;9.80;99.90
21039;DHT22;10678;51.002;4.786;2023-02-02T08:40:38;9.80;99.90
21039;DHT22;10678;51.002;4.786;2023-02-02T08:43:04;9.80;99.90
21039;DHT22;10678;51.002;4.786;2023-02-02T08:45:30;10.00;99.90
21039;DHT22;10678;51.002;4.786;2023-02-02T08:47:56;10.10;99.90
21039;DHT22;10678;51.002;4.786;2023-02-02T08:50:21;10.20;99.90
21039;DHT22;10678;51.002;4.786;2023-02-02T08:52:47;10.10;99.90
21039;DHT22;10678;51.002;4.786;2023-02-02T08:55:13;10.10;99.90
21039;DHT22;10678;51.002;4.786;2023-02-02T08:57:39;10.00;99.90
21039;DHT22;10678;51.002;4.786;2023-02-02T09:00:05;9.90;99.90
21039;DHT22;10678;51.002;4.786;2023-02-02T09:02:31;9.80;99.90
21039;DHT22;10678;51.002;4.786;2023-02-02T09:04:56;9.80;99.90
21039;DHT22;10678;51.002;4.786;2023-02-02T09:07:22;9.90;99.90
21039;DHT22;10678;51.002;4.786;2023-02-02T09:09:48;10.10;99.90
21039;DHT22;10678;51.002;4.786;2023-02-02T09:12:15;10.20;99.90
21039;DHT22;10678;51.002;4.786;2023-02-02T09:14:40;10.30;99.90
21039;DHT22;10678;51.002;4.786;2023-02-02T09:17:06;10.20;99.90
21039;DHT22;10678;51.002;4.786;2023-02-02T09:19:32;10.40;99.90
21039;DHT22;10678;51.002;4.786;2023-02-02T09:21:57;10.30;99.90
21039;DHT22;10678;51.002;4.786;2023-02-02T09:24:23;10.20;99.90
21039;DHT22;10678;51.002;4.786;2023-02-02T09:26:49;10.30;99.90
21039;DHT22;10678;51.002;4.786;2023-02-02T09:29:16;10.40;99.90
21039;DHT22;10678;51.002;4.786;2023-02-02T09:31:44;10.60;99.90
21039;DHT22;10678;51.002;4.786;2023-02-02T09:34:12;10.70;99.90
21039;DHT22;10678;51.002;4.786;2023-02-02T09:36:39;10.60;99.90
21039;DHT22;10678;51.002;4.786;2023-02-02T09:39:06;10.50;99.90
21039;DHT22;10678;51.002;4.786;2023-02-02T09:49:20;11.30;99.90
21039;DHT22;10678;51.002;4.786;2023-02-02T09:51:53;11.50;99.90
21039;DHT22;10678;51.002;4.786;2023-02-02T09:54:26;11.40;99.90
21039;DHT22;10678;51.002;4.786;2023-02-02T09:56:55;11.50;99.90
21039;DHT22;10678;51.002;4.786;2023-02-02T09:59:33;11.30;99.90
21039;DHT22;10678;51.002;4.786;2023-02-02T10:02:06;10.90;99.90
21039;DHT22;10678;51.002;4.786;2023-02-02T10:04:39;10.80;99.90
21039;DHT22;10678;51.002;4.786;2023-02-02T10:07:16;10.90;99.90
21039;DHT22;10678;51.002;4.786;2023-02-02T10:26:00;11.30;99.90
21039;DHT22;10678;51.002;4.786;2023-02-02T10:31:40;11.40;99.90
21039;DHT22;10678;51.002;4.786;2023-02-02T10:34:17;11.40;99.90
21039;DHT22;10678;51.002;4.786;2023-02-02T10:45:55;12.30;99.90
21039;DHT22;10678;51.002;4.786;2023-02-02T10:48:24;12.30;99.90
21039;DHT22;10678;51.002;4.786;2023-02-02T10:50:54;12.30;99.90
21039;DHT22;10678;51.002;4.786;2023-02-02T10:53:23;12.40;99.90
21039;DHT22;10678;51.002;4.786;2023-02-02T10:56:12;12.30;99.90
21039;DHT22;10678;51.002;4.786;2023-02-02T10:58:51;12.10;99.90
21039;DHT22;10678;51.002;4.786;2023-02-02T11:01:19;12.20;99.90
21039;DHT22;10678;51.002;4.786;2023-02-02T11:03:47;12.10;99.90
21039;DHT22;10678;51.002;4.786;2023-02-02T11:06:34;12.10;99.90
21039;DHT22;10678;51.002;4.786;2023-02-02T11:09:21;12.20;99.90
21039;DHT22;10678;51.002;4.786;2023-02-02T11:11:50;12.30;99.90
21039;DHT22;10678;51.002;4.786;2023-02-02T11:14:36;12.30;99.90
21039;DHT22;10678;51.002;4.786;2023-02-02T11:17:05;12.70;99.90
21039;DHT22;10678;51.002;4.786;2023-02-02T11:19:33;12.80;99.90
21039;DHT22;10678;51.002;4.786;2023-02-02T11:22:01;12.90;99.90
21039;DHT22;10678;51.002;4.786;2023-02-02T11:29:26;12.40;99.90
21039;DHT22;10678;51.002;4.786;2023-02-02T11:31:52;12.60;99.90
21039;DHT22;10678;51.002;4.786;2023-02-02T11:34:26;12.70;99.90
21039;DHT22;10678;51.002;4.786;2023-02-02T11:40:30;12.70;99.90
21039;DHT22;10678;51.002;4.786;2023-02-02T11:42:58;12.90;99.90
21039;DHT22;10678;51.002;4.786;2023-02-02T11:45:38;12.70;99.90
21039;DHT22;10678;51.002;4.786;2023-02-02T11:48:28;12.70;99.90
21039;DHT22;10678;51.002;4.786;2023-02-02T11:50:56;12.70;99.90
21039;DHT22;10678;51.002;4.786;2023-02-02T11:53:25;12.50;99.90
21039;DHT22;10678;51.002;4.786;2023-02-02T11:55:52;12.30;99.90
21039;DHT22;10678;51.002;4.786;2023-02-02T11:58:24;12.40;99.90
21039;DHT22;10678;51.002;4.786;2023-02-02T12:01:00;12.60;99.90
21039;DHT22;10678;51.002;4.786;2023-02-02T12:03:37;12.80;99.90
21039;DHT22;10678;51.002;4.786;2023-02-02T12:06:33;13.40;99.90
21039;DHT22;10678;51.002;4.786;2023-02-02T12:09:01;14.50;99.90
21039;DHT22;10678;51.002;4.786;2023-02-02T12:12:05;15.10;99.90
21039;DHT22;10678;51.002;4.786;2023-02-02T12:14:44;15.80;99.90
21039;DHT22;10678;51.002;4.786;2023-02-02T12:30:43;13.80;99.90
21039;DHT22;10678;51.002;4.786;2023-02-02T12:33:22;14.20;99.90
21039;DHT22;10678;51.002;4.786;2023-02-02T12:36:22;14.30;99.90
21039;DHT22;10678;51.002;4.786;2023-02-02T12:39:01;14.20;99.90
21039;DHT22;10678;51.002;4.786;2023-02-02T12:41:35;13.90;99.90
21039;DHT22;10678;51.002;4.786;2023-02-02T12:44:21;14.00;99.90
21039;DHT22;10678;51.002;4.786;2023-02-02T12:46:59;13.90;99.90
21039;DHT22;10678;51.002;4.786;2023-02-02T13:00:24;13.50;99.90
21039;DHT22;10678;51.002;4.786;2023-02-02T13:03:04;13.60;99.90
21039;DHT22;10678;51.002;4.786;2023-02-02T13:06:33;13.40;99.90
21039;DHT22;10678;51.002;4.786;2023-02-02T13:09:11;13.30;99.90
21039;DHT22;10678;51.002;4.786;2023-02-02T13:14:33;13.40;99.90
21039;DHT22;10678;51.002;4.786;2023-02-02T13:17:18;13.80;99.90
21039;DHT22;10678;51.002;4.786;2023-02-02T13:19:56;13.90;99.90
21039;DHT22;10678;51.002;4.786;2023-02-02T13:22:36;13.90;99.90
21039;DHT22;10678;51.002;4.786;2023-02-02T13:27:52;14.00;99.90
21039;DHT22;10678;51.002;4.786;2023-02-02T13:30:30;14.10;99.90
21039;DHT22;10678;51.002;4.786;2023-02-02T13:32:59;14.10;99.90
21039;DHT22;10678;51.002;4.786;2023-02-02T13:35:46;14.00;99.90
21039;DHT22;10678;51.002;4.786;2023-02-02T13:38:24;13.90;99.90
21039;DHT22;10678;51.002;4.786;2023-02-02T13:40:52;13.50;99.90
21039;DHT22;10678;51.002;4.786;2023-02-02T13:51:48;12.90;99.90
21039;DHT22;10678;51.002;4.786;2023-02-02T14:02:43;12.30;99.90
21039;DHT22;10678;51.002;4.786;2023-02-02T14:05:28;12.60;99.90
21039;DHT22;10678;51.002;4.786;2023-02-02T14:08:00;12.60;99.90
21039;DHT22;10678;51.002;4.786;2023-02-02T14:10:43;12.60;99.90
21039;DHT22;10678;51.002;4.786;2023-02-02T14:15:57;12.50;99.90
21039;DHT22;10678;51.002;4.786;2023-02-02T14:26:46;12.10;99.90
21039;DHT22;10678;51.002;4.786;2023-02-02T14:31:55;12.00;99.90
21039;DHT22;10678;51.002;4.786;2023-02-02T14:34:34;12.10;99.90
21039;DHT22;10678;51.002;4.786;2023-02-02T14:48:38;11.70;99.90
21039;DHT22;10678;51.002;4.786;2023-02-02T14:51:21;11.80;99.90
21039;DHT22;10678;51.002;4.786;2023-02-02T14:56:15;11.50;99.90
21039;DHT22;10678;51.002;4.786;2023-02-02T14:58:59;11.40;99.90
21039;DHT22;10678;51.002;4.786;2023-02-02T15:01:31;11.40;99.90
21039;DHT22;10678;51.002;4.786;2023-02-02T15:04:23;11.40;99.90
21039;DHT22;10678;51.002;4.786;2023-02-02T15:06:50;11.20;99.90
21039;DHT22;10678;51.002;4.786;2023-02-02T15:14:40;11.30;99.90
21039;DHT22;10678;51.002;4.786;2023-02-02T15:25:19;11.20;99.90
21039;DHT22;10678;51.002;4.786;2023-02-02T15:27:59;11.10;99.90
21039;DHT22;10678;51.002;4.786;2023-02-02T15:30:27;11.10;99.90
21039;DHT22;10678;51.002;4.786;2023-02-02T15:32:55;11.10;99.90
21039;DHT22;10678;51.002;4.786;2023-02-02T15:35:28;11.10;99.90
21039;DHT22;10678;51.002;4.786;2023-02-02T15:38:00;11.00;99.90
21039;DHT22;10678;51.002;4.786;2023-02-02T15:40:29;11.00;99.90
21039;DHT22;10678;51.002;4.786;2023-02-02T15:43:00;11.00;99.90
21039;DHT22;10678;51.002;4.786;2023-02-02T15:47:54;11.00;99.90
21039;DHT22;10678;51.002;4.786;2023-02-02T15:50:21;10.90;99.90
21039;DHT22;10678;51.002;4.786;2023-02-02T15:52:48;10.80;99.90
21039;DHT22;10678;51.002;4.786;2023-02-02T15:55:28;10.70;99.90
21039;DHT22;10678;51.002;4.786;2023-02-02T15:57:53;10.70;99.90
21039;DHT22;10678;51.002;4.786;2023-02-02T16:00:28;10.70;99.90
21039;DHT22;10678;51.002;4.786;2023-02-02T16:08:02;10.70;99.90
21039;DHT22;10678;51.002;4.786;2023-02-02T16:10:29;10.70;99.90
21039;DHT22;10678;51.002;4.786;2023-02-02T16:12:55;10.80;99.90
21039;DHT22;10678;51.002;4.786;2023-02-02T16:15:24;10.80;99.90
21039;DHT22;10678;51.002;4.786;2023-02-02T16:18:02;10.70;99.90
21039;DHT22;10678;51.002;4.786;2023-02-02T16:20:31;10.60;99.90
21039;DHT22;10678;51.002;4.786;2023-02-02T16:22:57;10.60;99.90
21039;DHT22;10678;51.002;4.786;2023-02-02T16:25:31;10.60;99.90
21039;DHT22;10678;51.002;4.786;2023-02-02T16:27:58;10.70;99.90
21039;DHT22;10678;51.002;4.786;2023-02-02T16:30:32;10.70;99.90
21039;DHT22;10678;51.002;4.786;2023-02-02T16:35:57;10.50;99.90
21039;DHT22;10678;51.002;4.786;2023-02-02T16:38:30;10.50;99.90
21039;DHT22;10678;51.002;4.786;2023-02-02T16:41:11;10.40;99.90
21039;DHT22;10678;51.002;4.786;2023-02-02T16:43:41;10.40;99.90
21039;DHT22;10678;51.002;4.786;2023-02-02T16:46:14;10.40;99.90
21039;DHT22;10678;51.002;4.786;2023-02-02T16:49:04;10.40;99.90
21039;DHT22;10678;51.002;4.786;2023-02-02T16:51:31;10.40;99.90
21039;DHT22;10678;51.002;4.786;2023-02-02T16:56:40;10.30;99.90
21039;DHT22;10678;51.002;4.786;2023-02-02T16:59:32;10.30;99.90
21039;DHT22;10678;51.002;4.786;2023-02-02T17:02:18;10.30;99.90
21039;DHT22;10678;51.002;4.786;2023-02-02T17:04:55;10.30;99.90
21039;DHT22;10678;51.002;4.786;2023-02-02T17:07:22;10.50;99.90
21039;DHT22;10678;51.002;4.786;2023-02-02T17:09:48;10.40;99.90
21039;DHT22;10678;51.002;4.786;2023-02-02T17:14:54;10.60;99.90
21039;DHT22;10678;51.002;4.786;2023-02-02T17:17:21;10.60;99.90
21039;DHT22;10678;51.002;4.786;2023-02-02T17:19:47;10.60;99.90
21039;DHT22;10678;51.002;4.786;2023-02-02T17:22:14;10.60;99.90
21039;DHT22;10678;51.002;4.786;2023-02-02T17:24:46;10.60;99.90
21039;DHT22;10678;51.002;4.786;2023-02-02T17:27:32;10.50;99.90
21039;DHT22;10678;51.002;4.786;2023-02-02T17:30:02;10.50;99.90
21039;DHT22;10678;51.002;4.786;2023-02-02T17:32:29;10.40;99.90
21039;DHT22;10678;51.002;4.786;2023-02-02T17:34:55;10.40;99.90
21039;DHT22;10678;51.002;4.786;2023-02-02T17:37:21;10.30;99.90
21039;DHT22;10678;51.002;4.786;2023-02-02T17:39:46;10.30;99.90
21039;DHT22;10678;51.002;4.786;2023-02-02T17:42:25;10.30;99.90
21039;DHT22;10678;51.002;4.786;2023-02-02T17:44:51;10.40;99.90
21039;DHT22;10678;51.002;4.786;2023-02-02T17:47:17;10.50;99.90
21039;DHT22;10678;51.002;4.786;2023-02-02T17:49:42;10.40;99.90
21039;DHT22;10678;51.002;4.786;2023-02-02T17:52:09;10.50;99.90
21039;DHT22;10678;51.002;4.786;2023-02-02T17:54:34;10.60;99.90
21039;DHT22;10678;51.002;4.786;2023-02-02T17:57:00;10.60;99.90
21039;DHT22;10678;51.002;4.786;2023-02-02T17:59:25;10.60;99.90
21039;DHT22;10678;51.002;4.786;2023-02-02T18:01:52;10.60;99.90
21039;DHT22;10678;51.002;4.786;2023-02-02T18:04:20;10.60;99.90
21039;DHT22;10678;51.002;4.786;2023-02-02T18:06:46;10.50;99.90
21039;DHT22;10678;51.002;4.786;2023-02-02T18:09:12;10.40;99.90
21039;DHT22;10678;51.002;4.786;2023-02-02T18:11:37;10.30;99.90
21039;DHT22;10678;51.002;4.786;2023-02-02T18:14:03;10.30;99.90
21039;DHT22;10678;51.002;4.786;2023-02-02T18:16:29;10.40;99.90
21039;DHT22;10678;51.002;4.786;2023-02-02T18:18:55;10.40;99.90
21039;DHT22;10678;51.002;4.786;2023-02-02T18:21:23;10.40;99.90
21039;DHT22;10678;51.002;4.786;2023-02-02T18:23:51;10.30;99.90
21039;DHT22;10678;51.002;4.786;2023-02-02T18:26:21;10.30;99.90
21039;DHT22;10678;51.002;4.786;2023-02-02T18:28:47;10.10;99.90
21039;DHT22;10678;51.002;4.786;2023-02-02T18:31:16;10.20;99.90
21039;DHT22;10678;51.002;4.786;2023-02-02T18:33:43;10.30;99.90
21039;DHT22;10678;51.002;4.786;2023-02-02T18:36:11;10.20;99.90
21039;DHT22;10678;51.002;4.786;2023-02-02T18:38:39;10.20;99.90
21039;DHT22;10678;51.002;4.786;2023-02-02T18:41:04;10.20;99.90
21039;DHT22;10678;51.002;4.786;2023-02-02T18:43:30;10.20;99.90
21039;DHT22;10678;51.002;4.786;2023-02-02T18:46:04;10.30;99.90